Vienna, Austria

8:58 AM CET on 三月 05, 2015 (GMT +0100)
Schwechat | Change Station
CLOSE
Current Station
空港
Location: Vienna Schwechat,
高度: 600 ft
最寄りの気象観測所

高度 600 ft 48.11 °N, 16.57 °E | Updated 8 minutes ago

Scattered Clouds
やや曇
41 °F
体感気温 34 °F
12
風 変数 風 から 北西

今日
高い -- | 低 -- °F
--% 降水確率
昨日
高い -- | 低 -- °F
Precip. -- インチ
6:28 AM 5:44 PM
満月, 100% visible
気圧 30.39 インチ
視程 6.2 マイル
わずか 5000 ft
やや曇 7000 ft
体感気温(寒さ) 34 °F
露点温度 28 °F
湿度 61%
降水 0.00 インチ
積雪深 利用不可。
紫外線 1 の内の 12
花粉 利用不可。
空気品質 利用不可。
Flu Activity 利用不可。
METAR LOWW 050750Z 31010KT 9999 FEW050 SCT070 05/M02 Q1029 NOSIG

More Conditions Fewer Conditions

気圧 30.39 インチ
視程 6.2 マイル
わずか 5000 ft
やや曇 7000 ft
体感気温(寒さ) 34 °F
露点温度 28 °F
湿度 61%
降水 0.00 インチ
積雪深 利用不可。
紫外線 1 の内の 12
花粉 利用不可。
空気品質 利用不可。
Flu Activity 利用不可。
METAR LOWW 050750Z 31010KT 9999 FEW050 SCT070 05/M02 Q1029 NOSIG

More Conditions Fewer Conditions

10-Day Weather Forecast

Almanac

天文

Mar. 05, 2015 入り
実時間
常用薄明
航海薄明
天文薄明
可視光の長さ
可照時間
Tomorrow will be .
, % of the Moon is Illuminated

今日の極値

Country Highs Country Lows

Community

WunderPhotos

Upload Photos

1,802,689 写真がアップロードされました!

WunderBlogs® & News

Nearby

空気品質

  空気品質 大気質指数 汚染物質
Not available.

積雪深

Station Depth 高度

地震活動

Distance Mag. Time & Date
Minimum magnitude displayed is 2.5.

沿岸の水温

地名 気温

最寄りの気象観測所